KAVP/AVP METAR and TAF weather

Enter ICAO airport designator
Station Type Date Time Source
KAVP METAR 2018/10/19 14:54 UTC NOAA

KAVP 191454Z 24012G17KT 10SM CLR 08/M01 A3024 RMK AO2 SLP245 T00831006 58013


Station Type Date Time Source
KAVP Decoded METAR 2018/10/19 14:54 UTC NOAA

WILKES-BARRE/SCRANTON INTERNATIONAL , PA, United States (KAVP) 41-20N 75-44W 291M
Oct 19, 2018 - 10:54 AM EDT / 2018.10.19 1454 UTC
Wind: from the WSW (240 degrees) at 14 MPH (12 KT) gusting to 20 MPH (17 KT):0
Visibility: 10 mile(s):0
Sky conditions: clear
Temperature: 46.9 F (8.3 C)
Dew Point: 30.9 F (-0.6 C)
Relative Humidity: 53%
Pressure (altimeter): 30.24 in. Hg (1024 hPa)
Pressure tendency: 0.04 inches (1.3 hPa) lower than three hours ago
ob: KAVP 191454Z 24012G17KT 10SM CLR 08/M01 A3024 RMK AO2 SLP245 T00831006 58013
cycle: 15

Station Type Date Time Source
KAVP TAF 2018/10/19 12:22 UTC NOAA

TAF KAVP 191120Z 1912/2012 20004KT P6SM SKC
FM191600 22008KT P6SM SKC
FM200000 21006KT P6SM BKN150 WS020/23040KT
FM200600 22008KT P6SM -SHRA OVC030
FM200900 22008KT P6SM OVC015


Example: see airport list